Time;durP1;ratioP1;P1;durP2;ratioP2;P2;SDS_P1;SDS_P2;PMS_P1;PMS_P2;Temp;Humidity;BMP_temperature;BMP_pressure;BME280_temperature;BME280_humidity;BME280_pressure;Samples;Min_cycle;Max_cycle;Signal;HPM_P1;HPM_P2
2022/04/22 00:00:55;;;;;;;;;;;;;;;;;;5118831;27;28424;-87
2022/04/22 00:03:20;;;;;;;;;;;;;;;;;;5118709;27;29489;-87
2022/04/22 00:05:45;;;;;;;;;;;;;;;;;;5118891;27;28371;-87
2022/04/22 00:08:10;;;;;;;;;;;;;;;;;;5118467;27;28451;-87
2022/04/22 00:11:28;;;;;;;;;;;;;;;;;;5118468;27;28603;-86
2022/04/22 00:13:21;;;;;;;;;;;;;;;;;;5118571;27;28449;-87
2022/04/22 00:15:46;;;;;;;;;;;;;;;;;;5118459;27;28473;-87
2022/04/22 00:18:11;;;;;;;;;;;;;;;;;;5118578;27;28362;-88
2022/04/22 00:20:36;;;;;;;;;;;;;;;;;;5118746;27;28467;-88
2022/04/22 00:23:01;;;;;;;;;;;;;;;;;;5118351;27;28377;-88
2022/04/22 00:25:26;;;;;;;;;;;;;;;;;;5118335;27;28464;-88
2022/04/22 00:27:51;;;;;;;;;;;;;;;;;;5118402;27;28393;-87
2022/04/22 00:30:16;;;;;;;;;;;;;;;;;;5118475;27;28523;-87
2022/04/22 00:32:41;;;;;;;;;;;;;;;;;;5118173;27;28432;-87
2022/04/22 00:35:06;;;;;;;;;;;;;;;;;;5118099;27;28397;-88
2022/04/22 00:37:32;;;;;;;;;;;;;;;;;;5118266;27;28393;-87
2022/04/22 00:39:57;;;;;;;;;;;;;;;;;;5118278;27;28386;-87
2022/04/22 00:42:22;;;;;;;;;;;;;;;;;;5117800;27;28449;-88
2022/04/22 00:44:47;;;;;;;;;;;;;;;;;;5118042;27;28334;-87
2022/04/22 00:47:12;;;;;;;;;;;;;;;;;;5117916;27;29670;-87
2022/04/22 00:49:37;;;;;;;;;;;;;;;;;;5118300;27;27941;-87
2022/04/22 00:52:02;;;;;;;;;;;;;;;;;;5117842;27;28432;-87
2022/04/22 00:54:27;;;;;;;;;;;;;;;;;;5117834;27;28440;-88
2022/04/22 00:56:52;;;;;;;;;;;;;;;;;;5117734;27;28594;-87
2022/04/22 00:59:18;;;;;;;;;;;;;;;;;;5117906;27;28362;-87
2022/04/22 01:01:43;;;;;;;;;;;;;;;;;;5117893;27;28511;-87
2022/04/22 01:09:47;;;;;;;;;;;;;;;;;;5117843;27;28518;-87
2022/04/22 01:12:13;;;;;;;;;;;;;;;;;;5117700;27;28644;-88
2022/04/22 01:14:38;;;;;;;;;;;;;;;;;;5117591;27;28307;-87
2022/04/22 01:17:04;;;;;;;;;;;;;;;;;;5117418;27;28248;-87
2022/04/22 01:19:29;;;;;;;;;;;;;;;;;;5117622;27;28402;-88
2022/04/22 01:21:54;;;;;;;;;;;;;;;;;;5117214;27;28538;-86
2022/04/22 01:24:19;;;;;;;;;;;;;;;;;;5117381;27;28476;-87
2022/04/22 01:26:44;;;;;;;;;;;;;;;;;;5117589;27;28505;-87
2022/04/22 01:29:09;;;;;;;;;;;;;;;;;;5117445;27;28326;-88
2022/04/22 01:31:34;;;;;;;;;;;;;;;;;;5117422;27;33655;-86
2022/04/22 01:33:59;;;;;;;;;;;;;;;;;;5116998;27;28377;-87
2022/04/22 01:36:24;;;;;;;;;;;;;;;;;;5117163;27;28201;-87
2022/04/22 01:38:50;;;;;;;;;;;;;;;;;;5117370;27;27818;-87
2022/04/22 01:41:15;;;;;;;;;;;;;;;;;;5117015;27;28343;-87
2022/04/22 01:43:40;;;;;;;;;;;;;;;;;;5117162;27;28382;-87
2022/04/22 01:46:05;;;;;;;;;;;;;;;;;;5116926;27;28709;-87
2022/04/22 01:48:30;;;;;;;;;;;;;;;;;;5117318;27;28335;-87
2022/04/22 01:50:55;;;;;;;;;;;;;;;;;;5116870;27;29158;-87
2022/04/22 01:53:21;;;;;;;;;;;;;;;;;;5117065;27;28305;-87
2022/04/22 01:55:46;;;;;;;;;;;;;;;;;;5117246;27;28335;-87
2022/04/22 01:58:11;;;;;;;;;;;;;;;;;;5117080;27;28304;-87
2022/04/22 02:00:36;;;;;;;;;;;;;;;;;;5116498;27;28496;-87
2022/04/22 02:03:01;;;;;;;;;;;;;;;;;;5116793;27;28318;-87
2022/04/22 02:05:26;;;;;;;;;;;;;;;;;;5116883;27;28372;-87
2022/04/22 02:07:51;;;;;;;;;;;;;;;;;;5116662;27;28358;-87
2022/04/22 02:10:17;;;;;;;;;;;;;;;;;;5116115;27;28385;-87
2022/04/22 02:12:42;;;;;;;;;;;;;;;;;;5116877;27;28305;-87
2022/04/22 02:15:07;;;;;;;;;;;;;;;;;;5116827;27;27898;-86
2022/04/22 02:17:32;;;;;;;;;;;;;;;;;;5116575;27;28377;-87
2022/04/22 02:19:57;;;;;;;;;;;;;;;;;;5116467;27;29023;-86
2022/04/22 02:22:23;;;;;;;;;;;;;;;;;;5116449;27;28302;-86
2022/04/22 02:24:48;;;;;;;;;;;;;;;;;;5116717;27;28240;-86
2022/04/22 02:29:57;;;;;;;;;;;;;;;;;;5116377;27;28824;-87
2022/04/22 02:32:22;;;;;;;;;;;;;;;;;;5116232;27;28338;-87
2022/04/22 02:34:47;;;;;;;;;;;;;;;;;;5116464;27;28244;-87
2022/04/22 02:37:12;;;;;;;;;;;;;;;;;;5116425;27;28255;-87
2022/04/22 02:39:37;;;;;;;;;;;;;;;;;;5116310;27;28308;-87
2022/04/22 02:47:50;;;;;;;;;;;;;;;;;;5093584;28;28646;-87
2022/04/22 02:50:15;;;;;;;;;;;;;;;;;;5093270;28;28412;-86
2022/04/22 02:52:40;;;;;;;;;;;;;;;;;;5093629;28;28541;-85
2022/04/22 02:55:05;;;;;;;;;;;;;;;;;;5093360;28;28426;-86
2022/04/22 02:57:30;;;;;;;;;;;;;;;;;;5093604;28;28398;-86
2022/04/22 02:59:55;;;;;;;;;;;;;;;;;;5093240;28;28702;-87
2022/04/22 03:02:20;;;;;;;;;;;;;;;;;;5092853;28;28481;-86
2022/04/22 03:04:47;;;;;;;;;;;;;;;;;;5093349;28;28646;-86
2022/04/22 03:07:12;;;;;;;;;;;;;;;;;;5093392;28;28400;-87
2022/04/22 03:09:37;;;;;;;;;;;;;;;;;;5093292;28;28604;-87
2022/04/22 03:12:03;;;;;;;;;;;;;;;;;;5093080;28;28473;-87
2022/04/22 03:14:29;;;;;;;;;;;;;;;;;;5093126;28;28297;-87
2022/04/22 03:16:54;;;;;;;;;;;;;;;;;;5114348;27;28244;-86
2022/04/22 03:19:19;;;;;;;;;;;;;;;;;;5115488;27;33669;-86
2022/04/22 03:21:44;;;;;;;;;;;;;;;;;;5118129;27;28338;-92
2022/04/22 03:24:11;;;;;;;;;;;;;;;;;;5119605;27;28297;-85
2022/04/22 03:26:36;;;;;;;;;;;;;;;;;;5119327;27;28379;-87
2022/04/22 03:29:01;;;;;;;;;;;;;;;;;;5119096;27;28531;-88
2022/04/22 03:31:26;;;;;;;;;;;;;;;;;;5119078;27;28440;-87
2022/04/22 03:33:51;;;;;;;;;;;;;;;;;;5119054;27;28450;-88
2022/04/22 03:36:16;;;;;;;;;;;;;;;;;;5119388;27;28381;-86
2022/04/22 03:38:43;;;;;;;;;;;;;;;;;;5119118;27;29629;-87
2022/04/22 03:41:08;;;;;;;;;;;;;;;;;;5119366;27;27915;-88
2022/04/22 03:43:33;;;;;;;;;;;;;;;;;;5119031;27;28392;-85
2022/04/22 03:45:58;;;;;;;;;;;;;;;;;;5119219;27;28628;-85
2022/04/22 03:48:23;;;;;;;;;;;;;;;;;;5118499;27;28559;-86
2022/04/22 03:50:49;;;;;;;;;;;;;;;;;;5119080;27;28501;-86
2022/04/22 03:53:14;;;;;;;;;;;;;;;;;;5118952;27;28370;-87
2022/04/22 03:55:39;;;;;;;;;;;;;;;;;;5118894;27;28485;-87
2022/04/22 03:58:13;;;;;;;;;;;;;;;;;;5118765;27;28483;-85
2022/04/22 04:00:40;;;;;;;;;;;;;;;;;;5118305;27;28475;-85
2022/04/22 04:03:05;;;;;;;;;;;;;;;;;;5118550;27;28402;-85
2022/04/22 04:05:31;;;;;;;;;;;;;;;;;;5118972;27;28361;-86
2022/04/22 04:07:56;;;;;;;;;;;;;;;;;;5118685;27;29185;-86
2022/04/22 04:15:58;;;;;;;;;;;;;;;;;;5118898;27;28408;-85
2022/04/22 04:18:23;;;;;;;;;;;;;;;;;;5118471;27;29564;-85
2022/04/22 04:23:32;;;;;;;;;;;;;;;;;;5118503;27;28406;-85
2022/04/22 04:25:57;;;;;;;;;;;;;;;;;;5118625;27;28330;-85
2022/04/22 04:28:23;;;;;;;;;;;;;;;;;;5118257;27;29418;-86
2022/04/22 04:30:48;;;;;;;;;;;;;;;;;;5118246;27;28346;-85
2022/04/22 04:33:13;;;;;;;;;;;;;;;;;;5117716;27;28461;-85
2022/04/22 04:35:38;;;;;;;;;;;;;;;;;;5118546;27;28291;-85
2022/04/22 04:38:04;;;;;;;;;;;;;;;;;;5118079;27;29010;-85
2022/04/22 04:40:29;;;;;;;;;;;;;;;;;;5117761;27;28398;-85
2022/04/22 04:42:54;;;;;;;;;;;;;;;;;;5118426;27;28453;-86
2022/04/22 04:45:19;;;;;;;;;;;;;;;;;;5118019;27;28409;-85
2022/04/22 04:47:44;;;;;;;;;;;;;;;;;;5118028;27;28584;-85
2022/04/22 04:50:09;;;;;;;;;;;;;;;;;;5116754;27;28534;-86
2022/04/22 04:52:37;;;;;;;;;;;;;;;;;;5117922;27;28438;-86
2022/04/22 04:55:02;;;;;;;;;;;;;;;;;;5118265;27;28388;-86
2022/04/22 04:57:27;;;;;;;;;;;;;;;;;;5117516;27;29261;-86
2022/04/22 04:59:52;;;;;;;;;;;;;;;;;;5117517;27;28494;-85
2022/04/22 05:02:17;;;;;;;;;;;;;;;;;;5117916;27;28324;-85
2022/04/22 05:04:42;;;;;;;;;;;;;;;;;;5117824;27;28445;-86
2022/04/22 05:07:07;;;;;;;;;;;;;;;;;;5117783;27;29312;-85
2022/04/22 05:09:32;;;;;;;;;;;;;;;;;;5117745;27;27913;-85
2022/04/22 05:11:57;;;;;;;;;;;;;;;;;;5117806;27;27824;-86
2022/04/22 05:14:25;;;;;;;;;;;;;;;;;;5117798;27;35114;-85
2022/04/22 05:16:50;;;;;;;;;;;;;;;;;;5117110;27;28342;-85
2022/04/22 05:19:15;;;;;;;;;;;;;;;;;;5117576;27;28381;-82
2022/04/22 05:21:40;;;;;;;;;;;;;;;;;;5117460;27;28784;-83
2022/04/22 05:24:06;;;;;;;;;;;;;;;;;;5117579;27;28408;-84
2022/04/22 05:26:31;;;;;;;;;;;;;;;;;;5117214;27;28401;-84
2022/04/22 05:28:56;;;;;;;;;;;;;;;;;;5113389;27;28522;-85
2022/04/22 05:34:05;;;;;;;;;;;;;;;;;;5117223;27;28611;-84
2022/04/22 05:36:30;;;;;;;;;;;;;;;;;;5116668;27;28625;-86
2022/04/22 05:38:55;;;;;;;;;;;;;;;;;;5116592;27;28406;-88
2022/04/22 05:41:20;;;;;;;;;;;;;;;;;;5117452;27;28344;-91
2022/04/22 05:43:46;;;;;;;;;;;;;;;;;;5112230;27;28472;-93
2022/04/22 05:46:11;;;;;;;;;;;;;;;;;;5105936;27;28582;-92
2022/04/22 05:48:36;;;;;;;;;;;;;;;;;;5117000;27;28556;-92
2022/04/22 05:51:01;;;;;;;;;;;;;;;;;;5117991;27;28473;-89
2022/04/22 05:53:26;;;;;;;;;;;;;;;;;;5118029;27;28322;-88
2022/04/22 05:55:51;;;;;;;;;;;;;;;;;;5117215;27;28494;-83
2022/04/22 05:58:17;;;;;;;;;;;;;;;;;;5116540;27;28470;-86
2022/04/22 06:00:42;;;;;;;;;;;;;;;;;;5116059;27;28435;-86
2022/04/22 06:03:07;;;;;;;;;;;;;;;;;;5116927;27;28414;-85
2022/04/22 06:05:32;;;;;;;;;;;;;;;;;;5116396;27;29162;-85
2022/04/22 06:10:42;;;;;;;;;;;;;;;;;;5118096;27;28389;-88
2022/04/22 06:13:07;;;;;;;;;;;;;;;;;;5115273;27;28422;-88
2022/04/22 06:15:32;;;;;;;;;;;;;;;;;;5115219;27;30959;-89
2022/04/22 06:17:57;;;;;;;;;;;;;;;;;;5116030;27;28500;-87
2022/04/22 06:20:22;;;;;;;;;;;;;;;;;;5116150;27;28470;-88
2022/04/22 06:22:47;;;;;;;;;;;;;;;;;;5116689;27;28786;-88
2022/04/22 06:25:12;;;;;;;;;;;;;;;;;;5117897;27;28510;-93
2022/04/22 06:27:38;;;;;;;;;;;;;;;;;;5118357;27;28978;-91
2022/04/22 06:30:03;;;;;;;;;;;;;;;;;;5116457;27;28398;-88
2022/04/22 06:32:28;;;;;;;;;;;;;;;;;;5116560;27;28473;-87
2022/04/22 06:34:53;;;;;;;;;;;;;;;;;;5116140;27;28459;-87
2022/04/22 06:37:18;;;;;;;;;;;;;;;;;;5116350;27;28394;-87
2022/04/22 06:47:55;;;;;;;;;;;;;;;;;;5116129;27;28279;-82
2022/04/22 06:50:20;;;;;;;;;;;;;;;;;;5115461;27;28503;-84
2022/04/22 06:52:45;;;;;;;;;;;;;;;;;;5115874;27;28523;-84
2022/04/22 06:55:10;;;;;;;;;;;;;;;;;;5115197;27;28402;-83
2022/04/22 06:57:35;;;;;;;;;;;;;;;;;;5115500;27;28462;-83
2022/04/22 07:00:01;;;;;;;;;;;;;;;;;;5115353;27;28402;-83
2022/04/22 07:02:26;;;;;;;;;;;;;;;;;;5115279;27;28458;-85
2022/04/22 07:04:51;;;;;;;;;;;;;;;;;;5115647;27;29043;-84
2022/04/22 07:07:16;;;;;;;;;;;;;;;;;;5115765;27;28366;-86
2022/04/22 07:09:41;;;;;;;;;;;;;;;;;;5115629;27;28454;-83
2022/04/22 07:12:06;;;;;;;;;;;;;;;;;;5115776;27;28308;-82
2022/04/22 07:14:31;;;;;;;;;;;;;;;;;;5115344;27;28479;-85
2022/04/22 07:16:56;;;;;;;;;;;;;;;;;;5115569;27;28644;-84
2022/04/22 07:19:21;;;;;;;;;;;;;;;;;;5115314;27;28491;-85
2022/04/22 07:21:47;;;;;;;;;;;;;;;;;;5115816;27;28372;-86
2022/04/22 07:24:12;;;;;;;;;;;;;;;;;;5115479;27;29419;-87
2022/04/22 07:26:37;;;;;;;;;;;;;;;;;;5115390;27;28372;-85
2022/04/22 07:29:03;;;;;;;;;;;;;;;;;;5115788;27;28449;-86
2022/04/22 07:31:29;;;;;;;;;;;;;;;;;;5115346;27;28369;-84
2022/04/22 07:33:54;;;;;;;;;;;;;;;;;;5115259;27;29166;-86
2022/04/22 07:36:20;;;;;;;;;;;;;;;;;;5115463;27;28383;-86
2022/04/22 07:38:45;;;;;;;;;;;;;;;;;;5115370;27;28461;-85
2022/04/22 07:41:10;;;;;;;;;;;;;;;;;;5115728;27;28401;-84
2022/04/22 07:49:03;;;;;;;;;;;;;;;;;;5115051;27;28339;-84
2022/04/22 07:51:28;;;;;;;;;;;;;;;;;;5115492;27;28426;-84
2022/04/22 07:53:55;;;;;;;;;;;;;;;;;;5115890;27;28431;-86
2022/04/22 07:56:20;;;;;;;;;;;;;;;;;;5115202;27;28327;-87
2022/04/22 07:58:45;;;;;;;;;;;;;;;;;;5114621;27;28281;-86
2022/04/22 08:01:11;;;;;;;;;;;;;;;;;;5114894;27;28477;-87
2022/04/22 08:03:39;;;;;;;;;;;;;;;;;;5114966;27;28377;-86
2022/04/22 08:06:04;;;;;;;;;;;;;;;;;;5114831;27;28351;-87
2022/04/22 08:08:30;;;;;;;;;;;;;;;;;;5118651;27;28359;-86
2022/04/22 08:10:55;;;;;;;;;;;;;;;;;;5118346;27;28533;-86
2022/04/22 08:13:20;;;;;;;;;;;;;;;;;;5117055;27;28717;-87
2022/04/22 08:15:45;;;;;;;;;;;;;;;;;;5118404;27;28480;-85
2022/04/22 08:18:10;;;;;;;;;;;;;;;;;;5118555;27;28329;-84
2022/04/22 08:20:36;;;;;;;;;;;;;;;;;;5118405;27;28335;-86
2022/04/22 08:23:01;;;;;;;;;;;;;;;;;;5118136;27;29431;-84
2022/04/22 08:25:26;;;;;;;;;;;;;;;;;;5118016;27;28563;-85
2022/04/22 08:27:51;;;;;;;;;;;;;;;;;;5118312;27;28334;-85
2022/04/22 08:30:16;;;;;;;;;;;;;;;;;;5117880;27;28382;-85
2022/04/22 08:32:41;;;;;;;;;;;;;;;;;;5116490;27;29625;-86
2022/04/22 08:35:08;;;;;;;;;;;;;;;;;;5117687;27;28327;-86
2022/04/22 08:37:33;;;;;;;;;;;;;;;;;;5118338;27;28511;-86
2022/04/22 08:39:59;;;;;;;;;;;;;;;;;;5118436;27;28372;-88
2022/04/22 08:42:24;;;;;;;;;;;;;;;;;;5117406;27;28520;-87
2022/04/22 08:44:49;;;;;;;;;;;;;;;;;;5118022;27;28351;-82
2022/04/22 08:49:58;;;;;;;;;;;;;;;;;;5117766;27;28409;-85
2022/04/22 08:52:23;;;;;;;;;;;;;;;;;;5117812;27;29537;-88
2022/04/22 08:54:48;;;;;;;;;;;;;;;;;;5117834;27;28343;-87
2022/04/22 08:57:13;;;;;;;;;;;;;;;;;;5116415;27;28438;-88
2022/04/22 08:59:39;;;;;;;;;;;;;;;;;;5117566;27;28497;-87
2022/04/22 09:02:04;;;;;;;;;;;;;;;;;;5116058;27;30182;-87
2022/04/22 09:04:29;;;;;;;;;;;;;;;;;;5117460;27;28538;-87
2022/04/22 09:06:54;;;;;;;;;;;;;;;;;;5117686;27;28586;-88
2022/04/22 09:09:19;;;;;;;;;;;;;;;;;;5117830;27;28504;-89
2022/04/22 09:11:45;;;;;;;;;;;;;;;;;;5116949;27;28458;-89
2022/04/22 09:14:10;;;;;;;;;;;;;;;;;;5117228;27;28479;-87
2022/04/22 09:16:35;;;;;;;;;;;;;;;;;;5117085;27;28342;-88
2022/04/22 09:19:01;;;;;;;;;;;;;;;;;;5117438;27;28261;-87
2022/04/22 09:21:26;;;;;;;;;;;;;;;;;;5116988;27;29582;-87
2022/04/22 09:23:53;;;;;;;;;;;;;;;;;;5117417;27;28246;-89
2022/04/22 09:26:18;;;;;;;;;;;;;;;;;;5117364;27;28420;-88
2022/04/22 09:28:43;;;;;;;;;;;;;;;;;;5116181;27;28488;-89
2022/04/22 09:31:08;;;;;;;;;;;;;;;;;;5116915;27;28343;-89
2022/04/22 09:33:34;;;;;;;;;;;;;;;;;;5115672;27;28523;-89
2022/04/22 09:44:10;;;;;;;;;;;;;;;;;;5117013;27;28294;-85
2022/04/22 09:46:35;;;;;;;;;;;;;;;;;;5117018;27;28814;-87
2022/04/22 09:49:00;;;;;;;;;;;;;;;;;;5117160;27;28301;-88
2022/04/22 09:51:27;;;;;;;;;;;;;;;;;;5116784;27;29376;-86
2022/04/22 09:53:52;;;;;;;;;;;;;;;;;;5117036;27;28347;-85
2022/04/22 09:56:17;;;;;;;;;;;;;;;;;;5116895;27;28484;-85
2022/04/22 09:58:42;;;;;;;;;;;;;;;;;;5116630;27;28593;-86
2022/04/22 10:01:07;;;;;;;;;;;;;;;;;;5116316;27;29433;-86
2022/04/22 10:03:32;;;;;;;;;;;;;;;;;;5116876;27;28246;-87
2022/04/22 10:05:58;;;;;;;;;;;;;;;;;;5116696;27;28239;-85
2022/04/22 10:08:23;;;;;;;;;;;;;;;;;;5116833;27;28339;-87
2022/04/22 10:10:49;;;;;;;;;;;;;;;;;;5116636;27;28468;-88
2022/04/22 10:13:17;;;;;;;;;;;;;;;;;;5116401;27;28396;-89
2022/04/22 10:15:42;;;;;;;;;;;;;;;;;;5116727;27;28368;-87
2022/04/22 10:18:07;;;;;;;;;;;;;;;;;;5117033;27;28796;-86
2022/04/22 10:20:32;;;;;;;;;;;;;;;;;;5117887;27;28425;-94
2022/04/22 10:22:57;;;;;;;;;;;;;;;;;;5115900;27;28374;-85
2022/04/22 10:25:23;;;;;;;;;;;;;;;;;;5116659;27;28397;-87
2022/04/22 10:27:48;;;;;;;;;;;;;;;;;;5116504;27;28469;-86
2022/04/22 10:30:13;;;;;;;;;;;;;;;;;;5116012;27;28457;-86
2022/04/22 10:32:40;;;;;;;;;;;;;;;;;;5116006;27;28469;-85
2022/04/22 10:35:05;;;;;;;;;;;;;;;;;;5116131;27;28436;-85
2022/04/22 10:37:32;;;;;;;;;;;;;;;;;;5116427;27;28537;-87
2022/04/22 10:39:57;;;;;;;;;;;;;;;;;;5116175;27;28587;-85
2022/04/22 10:42:25;;;;;;;;;;;;;;;;;;5116265;27;28023;-89
2022/04/22 10:47:34;;;;;;;;;;;;;;;;;;5117010;27;28305;-92
2022/04/22 10:49:59;;;;;;;;;;;;;;;;;;5118794;27;29961;-91
2022/04/22 10:52:24;;;;;;;;;;;;;;;;;;5117030;27;28798;-91
2022/04/22 10:54:49;;;;;;;;;;;;;;;;;;5116421;27;28286;-88
2022/04/22 10:57:15;;;;;;;;;;;;;;;;;;5116084;27;28377;-88
2022/04/22 10:59:40;;;;;;;;;;;;;;;;;;5115533;27;28910;-89
2022/04/22 11:02:06;;;;;;;;;;;;;;;;;;5116101;27;28400;-91
2022/04/22 11:04:31;;;;;;;;;;;;;;;;;;5116783;27;28314;-90
2022/04/22 11:06:56;;;;;;;;;;;;;;;;;;5116058;27;28393;-89
2022/04/22 11:09:21;;;;;;;;;;;;;;;;;;5118576;27;29130;-95
2022/04/22 11:11:46;;;;;;;;;;;;;;;;;;5119819;27;28384;-92
2022/04/22 11:14:12;;;;;;;;;;;;;;;;;;5127649;27;28428;-92
2022/04/22 11:16:37;;;;;;;;;;;;;;;;;;5130367;27;28423;-92
2022/04/22 11:19:02;;;;;;;;;;;;;;;;;;5129147;27;33656;-93
2022/04/22 11:21:27;;;;;;;;;;;;;;;;;;5128703;27;28892;-93
2022/04/22 11:23:52;;;;;;;;;;;;;;;;;;5118609;27;28601;-88
2022/04/22 11:26:17;;;;;;;;;;;;;;;;;;5117728;27;28323;-88
2022/04/22 11:28:42;;;;;;;;;;;;;;;;;;5115218;27;28449;-88
2022/04/22 11:31:08;;;;;;;;;;;;;;;;;;5116890;27;28597;-89
2022/04/22 11:33:33;;;;;;;;;;;;;;;;;;5116016;27;28385;-87
2022/04/22 11:35:58;;;;;;;;;;;;;;;;;;5123364;27;28488;-92
2022/04/22 11:38:23;;;;;;;;;;;;;;;;;;5117468;27;30571;-90
2022/04/22 11:40:51;;;;;;;;;;;;;;;;;;5115718;27;31477;-92
2022/04/22 11:43:20;;;;;;;;;;;;;;;;;;5118712;27;28223;-92
2022/04/22 11:45:45;;;;;;;;;;;;;;;;;;5119806;27;28504;-92
2022/04/22 11:48:10;;;;;;;;;;;;;;;;;;5122312;27;29428;-93
2022/04/22 11:50:36;;;;;;;;;;;;;;;;;;5119233;27;28507;-92
2022/04/22 11:53:04;;;;;;;;;;;;;;;;;;5120489;27;28908;-92
2022/04/22 11:55:30;;;;;;;;;;;;;;;;;;5121666;27;28434;-93
2022/04/22 11:57:55;;;;;;;;;;;;;;;;;;5120934;27;29889;-93
2022/04/22 12:05:48;;;;;;;;;;;;;;;;;;5126513;27;28236;-92
2022/04/22 12:08:15;;;;;;;;;;;;;;;;;;5121471;27;28517;-92
2022/04/22 12:10:40;;;;;;;;;;;;;;;;;;5118737;27;28488;-91
2022/04/22 12:13:06;;;;;;;;;;;;;;;;;;5120013;27;28510;-93
2022/04/22 12:15:32;;;;;;;;;;;;;;;;;;5119880;27;28251;-93
2022/04/22 12:17:57;;;;;;;;;;;;;;;;;;5119359;27;28411;-91
2022/04/22 12:20:22;;;;;;;;;;;;;;;;;;5118606;27;28389;-90
2022/04/22 12:22:51;;;;;;;;;;;;;;;;;;5118913;27;28228;-92
2022/04/22 12:25:16;;;;;;;;;;;;;;;;;;5117412;27;28446;-91
2022/04/22 12:27:41;;;;;;;;;;;;;;;;;;5119089;27;28384;-91
2022/04/22 12:30:08;;;;;;;;;;;;;;;;;;5118417;27;28539;-91
2022/04/22 12:32:33;;;;;;;;;;;;;;;;;;5119619;27;28503;-91
2022/04/22 12:34:58;;;;;;;;;;;;;;;;;;5117416;27;28361;-91
2022/04/22 12:37:24;;;;;;;;;;;;;;;;;;5119930;27;28433;-91
2022/04/22 12:39:50;;;;;;;;;;;;;;;;;;5118567;27;28090;-87
2022/04/22 12:42:18;;;;;;;;;;;;;;;;;;5119729;27;27942;-95
2022/04/22 12:52:07;;;;;;;;;;;;;;;;;;5122100;27;28309;-93
2022/04/22 12:52:56;;;;;;;;;;;;;;;;;;5117650;27;28414;-84
2022/04/22 12:55:21;;;;;;;;;;;;;;;;;;5117828;27;28297;-90
2022/04/22 12:57:46;;;;;;;;;;;;;;;;;;5115997;27;33735;-92
2022/04/22 13:00:11;;;;;;;;;;;;;;;;;;5116047;27;28438;-86
2022/04/22 13:02:36;;;;;;;;;;;;;;;;;;5117921;27;28398;-86
2022/04/22 13:05:01;;;;;;;;;;;;;;;;;;5117957;27;28432;-86
2022/04/22 13:07:26;;;;;;;;;;;;;;;;;;5117394;27;29109;-86
2022/04/22 13:09:52;;;;;;;;;;;;;;;;;;5117930;27;28469;-86
2022/04/22 13:12:17;;;;;;;;;;;;;;;;;;5117622;27;28336;-85
2022/04/22 13:14:42;;;;;;;;;;;;;;;;;;5117845;27;28321;-86
2022/04/22 13:17:07;;;;;;;;;;;;;;;;;;5117484;27;28247;-87
2022/04/22 13:19:32;;;;;;;;;;;;;;;;;;5117833;27;28309;-87
2022/04/22 13:21:58;;;;;;;;;;;;;;;;;;5117485;27;28240;-86
2022/04/22 13:24:23;;;;;;;;;;;;;;;;;;5116294;27;28626;-89
2022/04/22 13:26:48;;;;;;;;;;;;;;;;;;5117744;27;29541;-88
2022/04/22 13:29:13;;;;;;;;;;;;;;;;;;5117196;27;28392;-87
2022/04/22 13:31:38;;;;;;;;;;;;;;;;;;5117553;27;28309;-86
2022/04/22 13:34:03;;;;;;;;;;;;;;;;;;5123790;27;28305;-87
2022/04/22 13:36:28;;;;;;;;;;;;;;;;;;5116962;27;29140;-89
2022/04/22 13:38:53;;;;;;;;;;;;;;;;;;5117718;27;28357;-92
2022/04/22 13:41:19;;;;;;;;;;;;;;;;;;5117523;27;28263;-90
2022/04/22 13:43:44;;;;;;;;;;;;;;;;;;5118921;27;28432;-96
2022/04/22 13:54:21;;;;;;;;;;;;;;;;;;5117097;27;28493;-87
2022/04/22 13:56:46;;;;;;;;;;;;;;;;;;5117927;27;29866;-91
2022/04/22 13:59:11;;;;;;;;;;;;;;;;;;5117703;27;28457;-88
2022/04/22 14:01:37;;;;;;;;;;;;;;;;;;5117175;27;28322;-87
2022/04/22 14:04:02;;;;;;;;;;;;;;;;;;5114812;27;28319;-87
2022/04/22 14:06:27;;;;;;;;;;;;;;;;;;5116262;27;28442;-88
2022/04/22 14:08:52;;;;;;;;;;;;;;;;;;5115144;27;29610;-86
2022/04/22 14:11:18;;;;;;;;;;;;;;;;;;5116709;27;28492;-87
2022/04/22 14:13:43;;;;;;;;;;;;;;;;;;5116844;27;28356;-87
2022/04/22 14:16:08;;;;;;;;;;;;;;;;;;5116372;27;29204;-87
2022/04/22 14:18:35;;;;;;;;;;;;;;;;;;5116674;27;28583;-87
2022/04/22 14:21:00;;;;;;;;;;;;;;;;;;5116441;27;28332;-87
2022/04/22 14:23:25;;;;;;;;;;;;;;;;;;5116593;27;28248;-87
2022/04/22 14:25:50;;;;;;;;;;;;;;;;;;5114971;27;30031;-87
2022/04/22 14:28:16;;;;;;;;;;;;;;;;;;5116330;27;28313;-86
2022/04/22 14:30:42;;;;;;;;;;;;;;;;;;5116178;27;28408;-86
2022/04/22 14:33:07;;;;;;;;;;;;;;;;;;5116596;27;28404;-87
2022/04/22 14:35:32;;;;;;;;;;;;;;;;;;5115929;27;28512;-87
2022/04/22 14:37:58;;;;;;;;;;;;;;;;;;5116301;27;28502;-88
2022/04/22 14:40:23;;;;;;;;;;;;;;;;;;5116227;27;28314;-87
2022/04/22 14:42:50;;;;;;;;;;;;;;;;;;5116199;27;28481;-89
2022/04/22 14:45:15;;;;;;;;;;;;;;;;;;5114819;27;29577;-89
2022/04/22 14:47:40;;;;;;;;;;;;;;;;;;5116939;27;28260;-88
2022/04/22 14:50:06;;;;;;;;;;;;;;;;;;5116386;27;28489;-88
2022/04/22 14:52:31;;;;;;;;;;;;;;;;;;5114896;27;28396;-88
2022/04/22 14:54:56;;;;;;;;;;;;;;;;;;5115972;27;29071;-88
2022/04/22 14:57:21;;;;;;;;;;;;;;;;;;5116860;27;28343;-89
2022/04/22 14:59:47;;;;;;;;;;;;;;;;;;5116881;27;28313;-85
2022/04/22 15:02:12;;;;;;;;;;;;;;;;;;5116707;27;28476;-88
2022/04/22 15:04:37;;;;;;;;;;;;;;;;;;5115995;27;29408;-83
2022/04/22 15:07:02;;;;;;;;;;;;;;;;;;5115115;27;28339;-85
2022/04/22 15:09:28;;;;;;;;;;;;;;;;;;5116565;27;28586;-87
2022/04/22 15:11:53;;;;;;;;;;;;;;;;;;5116428;27;28319;-84
2022/04/22 15:14:18;;;;;;;;;;;;;;;;;;5115787;27;29189;-84
2022/04/22 15:16:43;;;;;;;;;;;;;;;;;;5118081;27;28292;-84
2022/04/22 15:24:35;;;;;;;;;;;;;;;;;;5119143;27;28320;-85
2022/04/22 15:27:01;;;;;;;;;;;;;;;;;;5119444;27;28297;-91
2022/04/22 15:29:29;;;;;;;;;;;;;;;;;;5120519;27;28228;-90
2022/04/22 15:31:54;;;;;;;;;;;;;;;;;;5118862;27;28707;-89
2022/04/22 15:34:19;;;;;;;;;;;;;;;;;;5119181;27;34364;-87
2022/04/22 15:36:44;;;;;;;;;;;;;;;;;;5119389;27;28320;-88
2022/04/22 15:39:09;;;;;;;;;;;;;;;;;;5119549;27;28377;-88
2022/04/22 15:41:35;;;;;;;;;;;;;;;;;;5119378;27;28369;-91
2022/04/22 15:44:00;;;;;;;;;;;;;;;;;;5118056;27;29282;-89
2022/04/22 15:46:25;;;;;;;;;;;;;;;;;;5117926;27;28406;-89
2022/04/22 15:48:50;;;;;;;;;;;;;;;;;;5119942;27;28691;-86
2022/04/22 15:51:17;;;;;;;;;;;;;;;;;;5119271;27;28538;-85
2022/04/22 15:53:42;;;;;;;;;;;;;;;;;;5118804;27;29733;-83
2022/04/22 15:56:09;;;;;;;;;;;;;;;;;;5119230;27;28333;-83
2022/04/22 15:58:35;;;;;;;;;;;;;;;;;;5118807;27;28488;-83
2022/04/22 16:01:00;;;;;;;;;;;;;;;;;;5119076;27;28330;-82
2022/04/22 16:03:25;;;;;;;;;;;;;;;;;;5118803;27;28395;-83
2022/04/22 16:05:52;;;;;;;;;;;;;;;;;;5118605;27;28396;-82
2022/04/22 16:08:17;;;;;;;;;;;;;;;;;;5118961;27;29368;-84
2022/04/22 16:10:42;;;;;;;;;;;;;;;;;;5119446;27;28314;-83
2022/04/22 16:15:52;;;;;;;;;;;;;;;;;;5119749;27;28272;-85
2022/04/22 16:18:19;;;;;;;;;;;;;;;;;;5118688;27;28333;-82
2022/04/22 16:20:44;;;;;;;;;;;;;;;;;;5103986;27;28322;-82
2022/04/22 16:23:09;;;;;;;;;;;;;;;;;;5099958;27;28512;-87
2022/04/22 16:25:35;;;;;;;;;;;;;;;;;;5099766;27;28445;-88
2022/04/22 16:28:01;;;;;;;;;;;;;;;;;;5113795;27;28888;-88
2022/04/22 16:30:32;;;;;;;;;;;;;;;;;;5118602;27;28252;-89
2022/04/22 16:32:58;;;;;;;;;;;;;;;;;;5125660;27;28570;-93
2022/04/22 16:35:23;;;;;;;;;;;;;;;;;;5115770;27;27899;-90
2022/04/22 16:37:50;;;;;;;;;;;;;;;;;;5103217;27;28663;-87
2022/04/22 16:40:16;;;;;;;;;;;;;;;;;;5109028;27;28500;-89
2022/04/22 16:42:41;;;;;;;;;;;;;;;;;;5101269;27;28756;-87
2022/04/22 16:45:20;;;;;;;;;;;;;;;;;;5099594;27;28675;-91
2022/04/22 16:47:47;;;;;;;;;;;;;;;;;;5117752;27;28438;-87
2022/04/22 16:50:13;;;;;;;;;;;;;;;;;;5117267;27;28386;-88
2022/04/22 16:52:38;;;;;;;;;;;;;;;;;;5117375;27;28530;-88
2022/04/22 16:55:03;;;;;;;;;;;;;;;;;;5096105;28;28406;-88
2022/04/22 16:57:28;;;;;;;;;;;;;;;;;;5104968;27;27795;-85
2022/04/22 16:59:53;;;;;;;;;;;;;;;;;;5105408;27;28603;-87
2022/04/22 17:02:19;;;;;;;;;;;;;;;;;;5098664;27;28672;-86
2022/04/22 17:04:44;;;;;;;;;;;;;;;;;;5109519;27;28522;-86
2022/04/22 17:07:10;;;;;;;;;;;;;;;;;;5114160;27;28476;-87
2022/04/22 17:09:35;;;;;;;;;;;;;;;;;;5104100;27;28469;-89
2022/04/22 17:12:01;;;;;;;;;;;;;;;;;;5101345;27;28664;-93
2022/04/22 17:22:41;;;;;;;;;;;;;;;;;;5110218;27;28406;-90
2022/04/22 17:25:06;;;;;;;;;;;;;;;;;;5128693;27;28472;-88
2022/04/22 17:27:31;;;;;;;;;;;;;;;;;;5109768;27;28902;-87
2022/04/22 17:29:56;;;;;;;;;;;;;;;;;;5110828;27;28492;-88
2022/04/22 17:32:21;;;;;;;;;;;;;;;;;;5114049;22;28571;-93
2022/04/22 17:34:46;;;;;;;;;;;;;;;;;;5080877;28;28485;-88
2022/04/22 17:37:12;;;;;;;;;;;;;;;;;;5099757;27;28327;-90
2022/04/22 17:39:37;;;;;;;;;;;;;;;;;;5099579;28;28446;-93
2022/04/22 17:42:02;;;;;;;;;;;;;;;;;;5100906;28;29715;-95
2022/04/22 17:44:27;;;;;;;;;;;;;;;;;;5102079;28;28568;-95
2022/04/22 17:46:52;;;;;;;;;;;;;;;;;;5098927;28;28881;-90
2022/04/22 17:49:20;;;;;;;;;;;;;;;;;;5087907;28;28549;-93
2022/04/22 17:51:46;;;;;;;;;;;;;;;;;;5083239;28;30284;-95
2022/04/22 17:54:11;;;;;;;;;;;;;;;;;;5080508;28;28766;-87
2022/04/22 17:56:37;;;;;;;;;;;;;;;;;;5084300;28;27918;-95
2022/04/22 17:59:02;;;;;;;;;;;;;;;;;;5086239;28;28638;-93
2022/04/22 18:01:28;;;;;;;;;;;;;;;;;;5084008;28;28382;-90
2022/04/22 18:03:55;;;;;;;;;;;;;;;;;;5108208;28;28332;-96